Time;durP1;ratioP1;P1;durP2;ratioP2;P2;SDS_P1;SDS_P2;PMS_P1;PMS_P2;Temp;Humidity;BMP_temperature;BMP_pressure;BME280_temperature;BME280_humidity;BME280_pressure;Samples;Min_cycle;Max_cycle;Signal;HPM_P1;HPM_P2
2022/12/01 00:00:28;;;;;;;;;;;154.50;2252.80;;;;;;5008433;28;20030;-78
2022/12/01 00:02:54;;;;;;;6.85;2.97;;;179.20;2252.80;;;;;;4994517;28;20328;-78
2022/12/01 00:05:19;;;;;;;;;;;179.20;2252.80;;;;;;5000279;28;20048;-79
2022/12/01 00:07:48;;;;;;;5.63;3.63;;;179.20;2252.80;;;;;;5023399;28;20328;-78
2022/12/01 00:10:26;;;;;;;6.53;3.28;;;179.20;2252.80;;;;;;4999152;28;20022;-78
2022/12/01 00:12:57;;;;;;;7.95;3.35;;;154.50;2252.80;;;;;;4999487;28;20022;-78
2022/12/01 00:15:26;;;;;;;6.18;2.58;;;154.50;2252.80;;;;;;5019838;28;20038;-78
2022/12/01 00:17:52;;;;;;;5.75;3.13;;;154.30;2252.80;;;;;;5004629;28;20060;-78
2022/12/01 00:20:18;;;;;;;;;;;154.20;2252.80;;;;;;5007680;28;20049;-78
2022/12/01 00:22:45;;;;;;;5.32;3.17;;;154.10;2252.80;;;;;;5008448;28;19905;-78
2022/12/01 00:25:13;;;;;;;5.43;2.65;;;154.00;2252.80;;;;;;4999755;28;20108;-78
2022/12/01 00:27:39;;;;;;;4.40;2.53;;;154.10;2252.80;;;;;;4999136;28;20025;-77
2022/12/01 00:30:07;;;;;;;4.50;2.45;;;154.20;2252.80;;;;;;5003113;28;20030;-77
2022/12/01 00:32:33;;;;;;;4.90;2.63;;;154.30;2252.80;;;;;;5002745;28;20032;-77
2022/12/01 00:34:59;;;;;;;;;;;154.40;2252.80;;;;;;5027974;28;20029;-78
2022/12/01 00:37:24;;;;;;;4.63;2.30;;;154.40;2252.80;;;;;;5031569;28;19949;-77
2022/12/01 00:39:50;;;;;;;;;;;154.40;2252.80;;;;;;5007223;28;20037;-78
2022/12/01 00:42:19;;;;;;;4.53;2.70;;;154.40;2252.80;;;;;;5024180;28;19954;-77
2022/12/01 00:44:46;;;;;;;4.45;2.45;;;154.30;2252.80;;;;;;5008508;28;20049;-78
2022/12/01 00:47:12;;;;;;;5.45;2.00;;;154.30;2252.80;;;;;;5008701;28;20037;-78
2022/12/01 00:49:37;;;;;;;;;;;154.40;2252.80;;;;;;5007221;28;20433;-78
2022/12/01 00:52:03;;;;;;;4.25;2.45;;;154.40;2252.80;;;;;;5010171;28;19912;-79
2022/12/01 00:54:32;;;;;;;;;;;154.30;2252.80;;;;;;5010064;28;20018;-78
2022/12/01 00:56:58;;;;;;;5.72;2.47;;;154.30;2252.80;;;;;;5022860;28;19952;-78
2022/12/01 00:59:24;;;;;;;5.05;2.58;;;154.30;2252.80;;;;;;5023407;28;20069;-78
2022/12/01 01:01:50;;;;;;;;;;;154.30;2252.80;;;;;;5006244;28;20029;-78
2022/12/01 01:04:16;;;;;;;5.18;2.80;;;154.20;2252.80;;;;;;5012458;28;19917;-78
2022/12/01 01:06:44;;;;;;;5.47;2.63;;;154.20;2252.80;;;;;;5006674;28;20028;-78
2022/12/01 01:09:12;;;;;;;6.18;2.97;;;154.20;2252.80;;;;;;5009630;28;20406;-78
2022/12/01 01:11:38;;;;;;;5.13;2.70;;;154.20;2252.80;;;;;;5009013;28;20053;-78
2022/12/01 01:14:04;;;;;;;;;;;154.00;2252.80;;;;;;5022639;28;20071;-79
2022/12/01 01:16:30;;;;;;;4.63;2.65;;;153.80;2252.80;;;;;;5008191;28;19908;-77
2022/12/01 01:18:57;;;;;;;;;;;153.80;2252.80;;;;;;5013790;28;20038;-77
2022/12/01 01:21:23;;;;;;;7.40;2.08;;;153.80;2252.80;;;;;;5007947;28;19912;-78
2022/12/01 01:23:51;;;;;;;5.85;2.67;;;153.90;2252.80;;;;;;5021230;28;20041;-78
2022/12/01 01:26:19;;;;;;;4.18;2.20;;;153.90;2252.80;;;;;;5031751;28;20151;-77
2022/12/01 01:28:46;;;;;;;4.53;2.38;;;153.90;2252.80;;;;;;5023835;28;20026;-78
2022/12/01 01:31:15;;;;;;;3.90;2.38;;;153.80;2252.80;;;;;;5006192;28;20030;-78
2022/12/01 01:33:41;;;;;;;3.50;1.98;;;153.80;2252.80;;;;;;5011426;28;20029;-78
2022/12/01 01:36:06;;;;;;;;;;;153.90;2252.80;;;;;;5007184;28;20052;-78
2022/12/01 01:38:33;;;;;;;3.90;1.83;;;153.80;2252.80;;;;;;5008478;28;20353;-77
2022/12/01 01:41:00;;;;;;;4.05;2.20;;;153.80;2252.80;;;;;;5011897;28;20037;-77
2022/12/01 01:43:46;;;;;;;6.28;2.50;;;153.80;2252.80;;;;;;5022859;28;20014;-78
2022/12/01 01:46:18;;;;;;;2.63;1.40;;;153.70;2252.80;;;;;;5021086;28;20034;-78
2022/12/01 01:49:09;;;;;;;4.32;1.98;;;128.90;2252.80;;;;;;5019046;28;20022;-78
2022/12/01 01:51:45;;;;;;;3.92;2.20;;;128.90;2252.80;;;;;;5011221;28;20032;-77
2022/12/01 01:54:16;;;;;;;4.18;2.00;;;128.90;2252.80;;;;;;5008278;28;20103;-77
2022/12/01 01:56:48;;;;;;;4.25;2.30;;;128.70;2252.80;;;;;;5008234;28;20025;-78
2022/12/01 01:59:20;;;;;;;4.78;2.55;;;128.70;2252.80;;;;;;5007857;28;20029;-78
2022/12/01 02:01:51;;;;;;;5.32;2.50;;;128.80;2252.80;;;;;;5025935;28;20040;-78
2022/12/01 02:04:18;;;;;;;4.90;2.20;;;128.80;2252.80;;;;;;5027142;28;20426;-78
2022/12/01 02:06:44;;;;;;;5.53;2.83;;;128.80;2252.80;;;;;;5018788;28;20038;-77
2022/12/01 02:09:11;;;;;;;;;;;128.80;2252.80;;;;;;5006346;28;20049;-77
2022/12/01 02:12:01;;;;;;;4.03;2.30;;;128.90;2252.80;;;;;;5008299;28;19910;-77
2022/12/01 02:14:55;;;;;;;6.07;2.83;;;128.70;2252.80;;;;;;5022550;28;20413;-78
2022/12/01 02:17:50;;;;;;;5.75;2.28;;;128.70;2252.80;;;;;;5022481;28;20021;-77
2022/12/01 02:20:22;;;;;;;3.78;2.50;;;128.70;2252.80;;;;;;5021516;28;20486;-79
2022/12/01 02:23:19;;;;;;;3.90;2.22;;;128.60;2252.80;;;;;;5024723;28;20013;-78
2022/12/01 02:26:03;;;;;;;3.72;1.63;;;128.60;2252.80;;;;;;5027938;28;20028;-78
2022/12/01 02:28:48;;;;;;;3.83;2.28;;;128.50;2252.80;;;;;;5025981;28;20025;-78
2022/12/01 02:31:38;;;;;;;5.03;2.55;;;128.40;2252.80;;;;;;5020921;28;20038;-78
2022/12/01 02:34:27;;;;;;;5.88;2.45;;;128.40;2252.80;;;;;;5007620;28;20053;-77
2022/12/01 02:37:27;;;;;;;4.90;2.65;;;128.50;2252.80;;;;;;5027870;28;20039;-78
2022/12/01 02:40:17;;;;;;;5.10;2.40;;;128.60;2252.80;;;;;;4974506;28;20074;-78
2022/12/01 02:42:51;;;;;;;4.97;2.58;;;128.60;2252.80;;;;;;4975380;28;20471;-79
2022/12/01 02:45:34;;;;;;;4.40;2.67;;;128.60;2252.80;;;;;;4986091;28;20484;-77
2022/12/01 02:48:02;;;;;;;4.38;2.28;;;128.70;2252.80;;;;;;4983278;28;20137;-78
2022/12/01 02:50:31;;;;;;;4.82;2.55;;;128.80;2252.80;;;;;;4969136;28;20030;-78
2022/12/01 02:52:58;;;;;;;6.45;2.20;;;128.80;2252.80;;;;;;4977778;28;20050;-77
2022/12/01 02:55:24;;;;;;;4.28;2.40;;;128.90;2252.80;;;;;;4974767;28;20125;-77
2022/12/01 02:57:49;;;;;;;;;;;153.60;2252.80;;;;;;4974973;28;20165;-77
2022/12/01 03:00:16;;;;;;;5.18;2.42;;;153.60;2252.80;;;;;;4983020;28;19914;-77
2022/12/01 03:03:20;;;;;;;4.70;2.53;;;153.60;2252.80;;;;;;4972139;28;20042;-79
2022/12/01 03:06:07;;;;;;;4.47;2.30;;;153.60;2252.80;;;;;;4982201;28;20027;-79
2022/12/01 03:09:21;;;;;;;7.03;2.08;;;153.70;2252.80;;;;;;4978795;28;20026;-78
2022/12/01 03:12:05;;;;;;;5.13;2.67;;;153.60;2252.80;;;;;;4978027;28;20026;-79
2022/12/01 03:14:47;;;;;;;4.25;2.58;;;153.70;2252.80;;;;;;4981424;28;20022;-78
2022/12/01 03:17:19;;;;;;;5.75;2.88;;;153.60;2252.80;;;;;;4997935;28;20038;-78
2022/12/01 03:19:54;;;;;;;6.68;3.22;;;128.80;2252.80;;;;;;5008548;28;20025;-78
2022/12/01 03:22:32;;;;;;;6.50;3.45;;;128.60;2252.80;;;;;;5004148;28;20025;-77
2022/12/01 03:25:02;;;;;;;6.40;3.00;;;128.50;2252.80;;;;;;5006649;28;20025;-78
2022/12/01 03:27:34;;;;;;;7.75;3.70;;;128.40;2252.80;;;;;;5024581;28;20021;-78
2022/12/01 03:30:02;;;;;;;11.75;4.15;;;128.40;2252.80;;;;;;5006650;28;20080;-77
2022/12/01 03:32:37;;;;;;;11.20;5.80;;;128.30;2252.80;;;;;;5024299;28;20667;-78
2022/12/01 03:35:38;;;;;;;9.73;5.28;;;128.30;2252.80;;;;;;5003495;28;20060;-77
2022/12/01 03:38:24;;;;;;;12.52;6.60;;;128.20;2252.80;;;;;;5022503;28;20105;-78
2022/12/01 03:40:55;;;;;;;9.13;5.03;;;128.30;2252.80;;;;;;5001600;28;20486;-78
2022/12/01 03:43:26;;;;;;;15.38;8.10;;;128.30;2252.80;;;;;;5006222;28;20109;-77
2022/12/01 03:46:16;;;;;;;18.77;8.40;;;128.40;2252.80;;;;;;5012237;28;20156;-78
2022/12/01 03:48:42;;;;;;;21.25;9.45;;;128.40;2252.80;;;;;;5025195;28;20017;-78
2022/12/01 03:51:48;;;;;;;17.00;8.88;;;128.50;2252.80;;;;;;5003804;28;20113;-77
2022/12/01 03:54:44;;;;;;;15.85;8.88;;;128.50;2252.80;;;;;;4928208;29;20047;-78
2022/12/01 03:57:19;;;;;;;15.02;7.75;;;128.50;2252.80;;;;;;4944028;29;20039;-78
2022/12/01 03:59:46;;;;;;;16.92;8.60;;;128.50;2252.80;;;;;;4945770;29;20039;-77
2022/12/01 04:02:12;;;;;;;18.58;9.75;;;128.50;2252.80;;;;;;4934335;29;20027;-78
2022/12/01 04:04:38;;;;;;;;;;;128.60;2252.80;;;;;;4944229;29;20032;-78
2022/12/01 04:07:04;;;;;;;17.30;8.68;;;128.50;2252.80;;;;;;4943669;29;19906;-78
2022/12/01 04:09:29;;;;;;;;;;;128.40;2252.80;;;;;;4932861;29;20166;-78
2022/12/01 04:14:39;;;;;;;15.45;8.05;;;128.60;2252.80;;;;;;4939294;29;20526;-78
2022/12/01 04:17:05;;;;;;;;;;;128.70;2252.80;;;;;;4941564;29;20120;-78
2022/12/01 04:19:31;;;;;;;15.18;7.50;;;128.60;2252.80;;;;;;4948981;28;19973;-77
2022/12/01 04:21:56;;;;;;;;;;;128.70;2252.80;;;;;;4932807;29;20035;-78
2022/12/01 04:24:22;;;;;;;13.63;7.82;;;128.80;2252.80;;;;;;4927279;29;20279;-77
2022/12/01 04:26:47;;;;;;;;;;;128.60;2252.80;;;;;;4933649;29;20034;-78
2022/12/01 04:29:13;;;;;;;15.07;7.60;;;128.60;2252.80;;;;;;5020609;28;19912;-77
2022/12/01 04:31:39;;;;;;;;;;;128.50;2252.80;;;;;;5006864;28;20029;-77
2022/12/01 04:34:05;;;;;;;13.75;7.32;;;128.50;2252.80;;;;;;5000912;28;19921;-78
2022/12/01 04:36:33;;;;;;;12.98;7.47;;;128.60;2252.80;;;;;;5026981;28;20022;-78
2022/12/01 04:39:00;;;;;;;17.25;8.88;;;128.80;2252.80;;;;;;5004633;28;20278;-78
2022/12/01 04:41:25;;;;;;;13.93;8.25;;;128.90;2252.80;;;;;;5009263;28;20071;-78
2022/12/01 04:43:52;;;;;;;;;;;153.60;2252.80;;;;;;5008829;28;20018;-78
2022/12/01 04:46:18;;;;;;;14.63;8.10;;;128.80;2252.80;;;;;;5003921;28;19911;-77
2022/12/01 04:48:43;;;;;;;;;;;128.70;2252.80;;;;;;5006407;28;20616;-78
2022/12/01 04:51:09;;;;;;;17.73;9.63;;;128.80;2252.80;;;;;;5010344;28;19956;-79
2022/12/01 04:53:35;;;;;;;;;;;128.90;2252.80;;;;;;5012486;28;20397;-78
2022/12/01 04:56:01;;;;;;;20.42;9.65;;;128.90;2252.80;;;;;;5007034;28;19905;-78
2022/12/01 04:58:28;;;;;;;;;;;128.70;2252.80;;;;;;5006060;28;20655;-78
2022/12/01 05:00:54;;;;;;;17.92;9.25;;;128.70;2252.80;;;;;;5019782;28;19917;-78
2022/12/01 05:03:20;;;;;;;;;;;128.90;2252.80;;;;;;5006203;28;20406;-78
2022/12/01 05:05:45;;;;;;;20.35;10.77;;;153.70;2252.80;;;;;;5003711;28;19913;-77
2022/12/01 05:08:11;;;;;;;;;;;153.60;2252.80;;;;;;5029143;28;20022;-77
2022/12/01 05:10:37;;;;;;;20.40;11.80;;;153.70;2252.80;;;;;;5029731;28;20360;-78
2022/12/01 05:13:04;;;;;;;22.77;10.63;;;153.70;2252.80;;;;;;5009137;28;20038;-77
2022/12/01 05:15:30;;;;;;;18.45;11.13;;;153.80;2252.80;;;;;;5002943;28;20026;-78
2022/12/01 05:17:56;;;;;;;;;;;128.90;2252.80;;;;;;5026880;28;20028;-77
2022/12/01 05:23:08;;;;;;;17.43;10.80;;;153.60;2252.80;;;;;;5026155;28;20589;-78
2022/12/01 05:25:34;;;;;;;;;;;153.60;2252.80;;;;;;5009226;28;20478;-78
2022/12/01 05:28:00;;;;;;;27.25;13.45;;;153.70;2252.80;;;;;;5010929;28;19916;-79
2022/12/01 05:30:25;;;;;;;;;;;153.70;2252.80;;;;;;5008791;28;20053;-77
2022/12/01 05:32:51;;;;;;;22.65;12.88;;;153.60;2252.80;;;;;;5004296;28;20304;-77
2022/12/01 05:35:17;;;;;;;;;;;153.70;2252.80;;;;;;5025311;28;20124;-77
2022/12/01 05:37:42;;;;;;;27.55;13.73;;;153.60;2252.80;;;;;;5007626;28;20285;-77
2022/12/01 05:40:08;;;;;;;;;;;153.70;2252.80;;;;;;5011062;28;20119;-77
2022/12/01 05:42:34;;;;;;;24.75;14.10;;;153.80;2252.80;;;;;;5004297;28;19952;-77
2022/12/01 05:44:59;;;;;;;;;;;153.70;2252.80;;;;;;5007536;28;20025;-77
2022/12/01 05:47:25;;;;;;;30.80;15.93;;;153.80;2252.80;;;;;;5005891;28;20686;-78
2022/12/01 05:49:51;;;;;;;;;;;153.80;2252.80;;;;;;5008478;28;20033;-79
2022/12/01 05:52:16;;;;;;;30.20;16.70;;;153.80;2252.80;;;;;;5024574;28;19991;-79
2022/12/01 05:54:42;;;;;;;;;;;153.90;2252.80;;;;;;5011316;28;20121;-79
2022/12/01 05:57:08;;;;;;;30.45;17.95;;;154.10;2252.80;;;;;;5000656;28;20400;-80
2022/12/01 05:59:33;;;;;;;;;;;154.10;2252.80;;;;;;5003615;28;20026;-78
2022/12/01 06:01:59;;;;;;;29.15;17.75;;;154.10;2252.80;;;;;;5011711;28;19963;-78
2022/12/01 06:04:24;;;;;;;;;;;154.10;2252.80;;;;;;5007178;28;20061;-79
2022/12/01 06:06:50;;;;;;;35.17;17.77;;;154.10;2252.80;;;;;;5003322;28;20380;-79
2022/12/01 06:09:16;;;;;;;;;;;154.20;2252.80;;;;;;5012044;28;20117;-79
2022/12/01 06:11:42;;;;;;;34.03;17.70;;;154.30;2252.80;;;;;;5011341;28;19905;-79
2022/12/01 06:14:07;;;;;;;;;;;154.20;2252.80;;;;;;5009182;28;20029;-78
2022/12/01 06:16:33;;;;;;;33.38;18.17;;;154.20;2252.80;;;;;;5010554;28;19905;-78
2022/12/01 06:18:58;;;;;;;;;;;154.20;2252.80;;;;;;5008903;28;20030;-78
2022/12/01 06:21:24;;;;;;;32.03;19.30;;;154.20;2252.80;;;;;;5027556;28;19996;-78
2022/12/01 06:23:50;;;;;;;;;;;154.30;2252.80;;;;;;5002202;28;20029;-77
2022/12/01 06:26:16;;;;;;;36.67;20.42;;;154.20;2252.80;;;;;;5004503;28;19905;-78
2022/12/01 06:28:41;;;;;;;;;;;154.20;2252.80;;;;;;5025566;28;20019;-78
2022/12/01 06:31:07;;;;;;;38.05;21.48;;;154.20;2252.80;;;;;;5024557;28;19909;-79
2022/12/01 06:33:32;;;;;;;;;;;154.20;2252.80;;;;;;5004986;28;20072;-78
2022/12/01 06:35:59;;;;;;;41.67;21.50;;;154.30;2252.80;;;;;;5002093;28;20380;-78
2022/12/01 06:38:26;;;;;;;42.67;24.25;;;154.20;2252.80;;;;;;5008201;28;20077;-80
2022/12/01 06:40:51;;;;;;;39.55;23.83;;;154.30;2252.80;;;;;;5004929;28;20540;-80
2022/12/01 06:43:17;;;;;;;;;;;154.40;2252.80;;;;;;5033851;28;20018;-79
2022/12/01 06:45:42;;;;;;;53.65;25.02;;;154.50;2252.80;;;;;;5016620;28;19956;-79
2022/12/01 06:48:08;;;;;;;;;;;154.20;2252.80;;;;;;5019811;28;20030;-79
2022/12/01 06:50:34;;;;;;;45.97;24.63;;;154.20;2252.80;;;;;;5033246;28;19941;-79
2022/12/01 06:52:59;;;;;;;;;;;154.30;2252.80;;;;;;5020353;28;20053;-81
2022/12/01 06:55:25;;;;;;;45.53;24.63;;;154.40;2252.80;;;;;;5017155;28;19912;-89
2022/12/01 06:57:51;;;;;;;;;;;154.40;2252.80;;;;;;5033393;28;20053;-79
2022/12/01 07:00:17;;;;;;;47.30;24.70;;;154.50;2252.80;;;;;;5016972;28;20403;-82
2022/12/01 07:02:44;;;;;;;;;;;179.20;2252.80;;;;;;5014836;28;20112;-82
2022/12/01 07:05:09;;;;;;;;;;;179.20;2252.80;;;;;;5016008;28;19917;-82
2022/12/01 07:07:37;;;;;;;42.40;24.17;;;179.20;2252.80;;;;;;5012724;28;19905;-81
2022/12/01 07:10:03;;;;;;;42.13;24.00;;;154.50;2252.80;;;;;;5015246;28;20473;-82
2022/12/01 07:12:31;;;;;;;;;;;154.50;2252.80;;;;;;5016817;28;20028;-79
2022/12/01 07:14:57;;;;;;;46.55;25.63;;;179.30;2252.80;;;;;;5016429;28;20388;-79
2022/12/01 07:17:23;;;;;;;;;;;179.40;2252.80;;;;;;5006693;28;20038;-80
2022/12/01 07:19:48;;;;;;;43.47;23.75;;;179.40;2252.80;;;;;;5015990;28;20354;-82
2022/12/01 07:22:14;;;;;;;;;;;179.40;2252.80;;;;;;5016877;28;20024;-84
2022/12/01 07:24:40;;;;;;;42.60;23.65;;;179.30;2252.80;;;;;;5016772;28;19909;-80
2022/12/01 07:27:06;;;;;;;;;;;179.40;2252.80;;;;;;5032018;28;20035;-79
2022/12/01 07:29:32;;;;;;;40.50;23.20;;;179.60;2252.80;;;;;;5033501;28;19915;-80
2022/12/01 07:31:57;;;;;;;;;;;179.60;2252.80;;;;;;5014366;28;20441;-80
2022/12/01 07:34:23;;;;;;;42.17;22.98;;;179.70;2252.80;;;;;;5015786;28;19916;-78
2022/12/01 07:36:49;;;;;;;;;;;179.80;2252.80;;;;;;5032780;28;20482;-80
2022/12/01 07:39:15;;;;;;;42.63;22.33;;;179.80;2252.80;;;;;;5015692;28;19909;-78
2022/12/01 07:41:40;;;;;;;;;;;179.90;2252.80;;;;;;5014922;28;20040;-78
2022/12/01 07:44:08;;;;;;;38.80;20.95;;;179.90;2252.80;;;;;;5032230;28;19905;-78
2022/12/01 07:46:34;;;;;;;33.03;19.98;;;180.00;2252.80;;;;;;4998411;28;20045;-79
2022/12/01 07:48:59;;;;;;;;;;;180.10;2252.80;;;;;;5011209;28;20490;-78
2022/12/01 07:51:26;;;;;;;34.85;19.33;;;204.80;2252.80;;;;;;5015330;28;19959;-76
2022/12/01 07:53:53;;;;;;;32.92;19.70;;;204.80;2252.80;;;;;;5032604;28;20501;-78
2022/12/01 07:56:20;;;;;;;33.08;20.23;;;204.90;2252.80;;;;;;5015368;28;20029;-78
2022/12/01 07:58:46;;;;;;;33.90;20.35;;;204.90;2252.80;;;;;;5032142;28;20037;-78
2022/12/01 08:01:12;;;;;;;;;;;205.00;2252.80;;;;;;5017777;28;20036;-78
2022/12/01 08:03:39;;;;;;;32.92;18.55;;;205.10;2252.80;;;;;;5000741;28;19917;-78
2022/12/01 08:06:06;;;;;;;31.92;18.35;;;205.10;2252.80;;;;;;5010519;28;20038;-81
2022/12/01 08:08:33;;;;;;;33.08;18.25;;;205.10;2252.80;;;;;;5008562;28;20032;-82
2022/12/01 08:11:02;;;;;;;30.10;17.65;;;205.10;2252.80;;;;;;5014057;28;20025;-85
2022/12/01 08:13:28;;;;;;;29.00;18.10;;;205.20;2252.80;;;;;;5015051;28;20032;-84
2022/12/01 08:15:54;;;;;;;22.42;13.35;;;205.30;2252.80;;;;;;5015743;28;20025;-83
2022/12/01 08:18:20;;;;;;;;;;;205.20;2252.80;;;;;;5019499;28;20021;-83
2022/12/01 08:20:45;;;;;;;28.42;15.82;;;205.20;2252.80;;;;;;5015952;28;19913;-90
2022/12/01 08:23:11;;;;;;;;;;;205.30;2252.80;;;;;;5032149;28;20370;-80
2022/12/01 08:25:37;;;;;;;23.92;13.82;;;205.40;2252.80;;;;;;5015258;28;19905;-79
2022/12/01 08:28:03;;;;;;;;;;;205.40;2252.80;;;;;;5023704;28;20025;-86
2022/12/01 08:30:28;;;;;;;17.85;11.57;;;205.40;2252.80;;;;;;5015401;28;19917;-80
2022/12/01 08:32:55;;;;;;;;;;;205.30;2252.80;;;;;;5015696;28;20103;-79
2022/12/01 08:35:22;;;;;;;13.02;7.88;;;205.30;2252.80;;;;;;5029145;28;19913;-78
2022/12/01 08:37:50;;;;;;;10.25;6.10;;;205.30;2252.80;;;;;;5004349;28;20029;-81
2022/12/01 08:40:15;;;;;;;12.18;7.20;;;205.30;2252.80;;;;;;5031648;28;20083;-80
2022/12/01 08:42:41;;;;;;;;;;;205.30;2252.80;;;;;;5015862;28;20030;-80
2022/12/01 08:45:07;;;;;;;11.55;6.55;;;205.30;2252.80;;;;;;5015234;28;19909;-81
2022/12/01 08:47:33;;;;;;;9.13;5.18;;;205.40;2252.80;;;;;;5031701;28;20084;-83
2022/12/01 08:49:58;;;;;;;;;;;205.40;2252.80;;;;;;5015435;28;20425;-82
2022/12/01 08:52:24;;;;;;;8.30;4.95;;;205.40;2252.80;;;;;;5022904;28;19909;-81
2022/12/01 08:54:50;;;;;;;;;;;205.30;2252.80;;;;;;5030791;28;20088;-81
2022/12/01 08:57:16;;;;;;;9.25;5.43;;;205.30;2252.80;;;;;;5015257;28;19967;-84
2022/12/01 08:59:43;;;;;;;;;;;205.20;2252.80;;;;;;5029671;28;20053;-86
2022/12/01 09:02:13;;;;;;;;;;;205.30;2252.80;;;;;;5012469;28;19910;-82
2022/12/01 09:04:38;;;;;;;11.23;5.20;;;205.20;2252.80;;;;;;5027569;28;19909;-86
2022/12/01 09:07:04;;;;;;;;;;;205.30;2252.80;;;;;;5033157;28;20025;-85
2022/12/01 09:09:30;;;;;;;9.02;5.30;;;205.40;2252.80;;;;;;5033101;28;20246;-87
2022/12/01 09:11:56;;;;;;;;;;;205.40;2252.80;;;;;;5015183;28;20128;-83
2022/12/01 09:14:22;;;;;;;9.43;4.40;;;205.50;2252.80;;;;;;5031612;28;20343;-82
2022/12/01 09:16:49;;;;;;;12.48;5.43;;;205.40;2252.80;;;;;;5032688;28;20072;-86
2022/12/01 09:19:16;;;;;;;12.68;6.28;;;205.50;2252.80;;;;;;5024435;28;20061;-87
2022/12/01 09:21:44;;;;;;;14.32;6.50;;;205.50;2252.80;;;;;;5019040;28;20032;-85
2022/12/01 09:24:14;;;;;;;14.68;4.90;;;205.50;2252.80;;;;;;5028513;28;20050;-86
2022/12/01 09:26:40;;;;;;;9.35;4.28;;;205.50;2252.80;;;;;;5030492;28;20036;-85
2022/12/01 09:29:09;;;;;;;9.35;6.05;;;205.50;2252.80;;;;;;5018622;28;20029;-83
2022/12/01 09:31:36;;;;;;;8.93;4.88;;;205.50;2252.80;;;;;;5018405;28;20555;-84
2022/12/01 09:34:05;;;;;;;12.88;4.60;;;205.50;2252.80;;;;;;5006599;28;20025;-83
2022/12/01 09:36:32;;;;;;;6.72;4.05;;;205.60;2252.80;;;;;;5034914;28;20057;-86
2022/12/01 09:38:58;;;;;;;6.85;3.00;;;205.60;2252.80;;;;;;5007087;28;20081;-84
2022/12/01 09:41:38;;;;;;;7.22;3.38;;;205.50;2252.80;;;;;;5013897;28;20021;-82
2022/12/01 09:44:13;;;;;;;6.55;3.97;;;205.30;2252.80;;;;;;5014971;28;20040;-82
2022/12/01 09:47:12;;;;;;;8.02;3.13;;;205.20;2252.80;;;;;;5020867;28;20029;-85
2022/12/01 09:49:56;;;;;;;8.77;2.33;;;205.20;2252.80;;;;;;5022534;28;20072;-87
2022/12/01 09:52:27;;;;;;;6.80;3.30;;;205.20;2252.80;;;;;;5035723;28;20125;-87
2022/12/01 09:54:56;;;;;;;6.00;2.83;;;205.20;2252.80;;;;;;5018498;28;20092;-83
2022/12/01 09:57:35;;;;;;;7.45;3.30;;;205.20;2252.80;;;;;;5013847;28;20029;-84
2022/12/01 10:00:15;;;;;;;7.68;2.70;;;205.20;2252.80;;;;;;5010353;28;20041;-81
2022/12/01 10:02:41;;;;;;;7.03;2.28;;;205.30;2252.80;;;;;;5013253;28;20064;-81
2022/12/01 10:05:12;;;;;;;;;;;205.30;2252.80;;;;;;5020935;28;20045;-82
2022/12/01 10:08:02;;;;;;;7.32;3.13;;;205.40;2252.80;;;;;;5012227;28;19916;-85
2022/12/01 10:10:45;;;;;;;4.57;2.00;;;205.30;2252.80;;;;;;5014674;28;20129;-85
2022/12/01 10:13:25;;;;;;;4.38;2.28;;;205.30;2252.80;;;;;;5017478;28;20033;-84
2022/12/01 10:16:06;;;;;;;3.92;1.88;;;205.30;2252.80;;;;;;5018637;28;20049;-83
2022/12/01 10:18:37;;;;;;;4.18;1.88;;;205.40;2252.80;;;;;;5004556;28;20058;-87
2022/12/01 10:21:22;;;;;;;4.75;2.42;;;205.40;2252.80;;;;;;5021868;28;20114;-80
2022/12/01 10:24:09;;;;;;;6.43;1.70;;;205.40;2252.80;;;;;;5021316;28;20037;-79
2022/12/01 10:26:44;;;;;;;5.60;1.92;;;205.30;2252.80;;;;;;5020185;28;20244;-79
2022/12/01 10:29:27;;;;;;;4.18;1.92;;;205.40;2252.80;;;;;;5020679;28;20034;-79
2022/12/01 10:31:54;;;;;;;4.53;2.15;;;205.30;2252.80;;;;;;5012595;28;20029;-79
2022/12/01 10:34:38;;;;;;;3.42;2.05;;;205.30;2252.80;;;;;;5016925;28;20168;-79
2022/12/01 10:37:05;;;;;;;7.57;2.17;;;205.40;2252.80;;;;;;5028624;28;20091;-79
2022/12/01 10:39:37;;;;;;;4.30;2.00;;;205.50;2252.80;;;;;;5020556;28;20038;-79
2022/12/01 10:42:38;;;;;;;4.10;2.35;;;205.40;2252.80;;;;;;5008780;28;20108;-79
2022/12/01 10:45:12;;;;;;;5.88;2.30;;;205.40;2252.80;;;;;;4932054;29;20399;-79
2022/12/01 10:48:07;;;;;;;3.75;2.20;;;205.50;2252.80;;;;;;4934820;29;20034;-79
2022/12/01 10:50:33;;;;;;;3.30;1.73;;;205.50;2252.80;;;;;;4952250;29;20384;-79
2022/12/01 10:52:59;;;;;;;5.78;2.10;;;205.50;2252.80;;;;;;4937277;29;20043;-79
2022/12/01 10:55:26;;;;;;;;;;;205.60;2252.80;;;;;;4938048;29;20031;-79
2022/12/01 10:57:55;;;;;;;19.52;6.20;;;205.60;2252.80;;;;;;4953698;28;19914;-79
2022/12/01 11:00:36;;;;;;;11.80;5.20;;;230.40;2252.80;;;;;;4953433;28;20047;-78
2022/12/01 11:03:02;;;;;;;8.95;4.50;;;230.50;2252.80;;;;;;4934712;29;20445;-79
2022/12/01 11:05:32;;;;;;;7.25;3.38;;;205.70;2252.80;;;;;;4934747;29;20535;-79
2022/12/01 11:07:58;;;;;;;6.57;3.10;;;205.70;2252.80;;;;;;4953735;28;20027;-79
2022/12/01 11:10:31;;;;;;;;;;;230.40;2252.80;;;;;;4954186;28;20391;-79
2022/12/01 11:13:17;;;;;;;7.50;3.50;;;230.40;2252.80;;;;;;4953722;28;20406;-81
2022/12/01 11:16:28;;;;;;;7.68;3.65;;;230.50;2252.80;;;;;;4934859;29;20560;-80
2022/12/01 11:19:16;;;;;;;4.00;2.15;;;230.60;2252.80;;;;;;4937979;29;20031;-81
2022/12/01 11:21:55;;;;;;;9.02;3.22;;;230.70;2252.80;;;;;;4971177;28;20121;-79
2022/12/01 11:24:43;;;;;;;6.00;2.83;;;231.00;2252.80;;;;;;5024882;28;20084;-79
2022/12/01 11:27:44;;;;;;;10.07;6.00;;;231.30;2252.80;;;;;;5027385;28;20026;-81
2022/12/01 11:30:24;;;;;;;9.50;4.05;;;231.30;2252.80;;;;;;5016418;28;20029;-78
2022/12/01 11:32:59;;;;;;;5.97;3.72;;;231.20;2252.80;;;;;;5016470;28;20036;-79
2022/12/01 11:35:32;;;;;;;12.02;5.40;;;231.10;2252.80;;;;;;5015994;28;20029;-80
2022/12/01 11:38:01;;;;;;;19.33;11.63;;;230.80;2252.80;;;;;;5031393;28;20026;-83
2022/12/01 11:40:35;;;;;;;12.27;5.70;;;230.70;2252.80;;;;;;5015448;28;20058;-85
2022/12/01 11:43:04;;;;;;;5.90;3.63;;;230.60;2252.80;;;;;;5015967;28;20049;-87
2022/12/01 11:45:41;;;;;;;8.00;4.43;;;230.60;2252.80;;;;;;5016137;28;20080;-81
2022/12/01 11:48:15;;;;;;;10.82;4.85;;;230.60;2252.80;;;;;;5031090;28;20027;-82
2022/12/01 11:50:43;;;;;;;9.88;5.05;;;230.70;2252.80;;;;;;5015731;28;20029;-82
2022/12/01 11:53:28;;;;;;;8.30;3.60;;;230.80;2252.80;;;;;;5015690;28;20037;-80
2022/12/01 11:56:15;;;;;;;4.20;2.83;;;230.80;2252.80;;;;;;5022335;28;20028;-78
2022/12/01 11:58:42;;;;;;;5.13;2.72;;;230.80;2252.80;;;;;;5021060;28;20056;-81
2022/12/01 12:01:29;;;;;;;7.20;3.20;;;230.80;2252.80;;;;;;5009088;28;20124;-85
2022/12/01 12:04:06;;;;;;;14.13;3.53;;;230.80;2252.80;;;;;;5014196;28;20061;-81
2022/12/01 12:06:56;;;;;;;6.90;2.97;;;230.70;2252.80;;;;;;5032007;28;20103;-81
2022/12/01 12:10:01;;;;;;;8.35;4.60;;;230.80;2252.80;;;;;;5025892;28;20057;-80
2022/12/01 12:12:39;;;;;;;5.97;3.15;;;230.90;2252.80;;;;;;5013790;28;20033;-80
2022/12/01 12:15:14;;;;;;;8.20;4.20;;;230.90;2252.80;;;;;;5022021;28;20033;-80
2022/12/01 12:18:01;;;;;;;6.45;3.53;;;230.90;2252.80;;;;;;5025171;28;20026;-81
2022/12/01 12:20:41;;;;;;;5.45;3.15;;;230.90;2252.80;;;;;;5011270;28;20087;-79
2022/12/01 12:23:19;;;;;;;7.18;3.22;;;231.00;2252.80;;;;;;5022741;28;20064;-80
2022/12/01 12:26:05;;;;;;;6.32;3.63;;;231.00;2252.80;;;;;;5032012;28;20021;-80
2022/12/01 12:29:04;;;;;;;8.73;4.75;;;230.90;2252.80;;;;;;5015508;28;20129;-84
2022/12/01 12:31:42;;;;;;;8.02;4.13;;;230.90;2252.80;;;;;;5024713;28;20034;-82
2022/12/01 12:34:40;;;;;;;7.03;3.13;;;230.90;2252.80;;;;;;5032120;28;20124;-83
2022/12/01 12:37:14;;;;;;;;;;;230.90;2252.80;;;;;;5015877;28;20034;-81
2022/12/01 12:39:54;;;;;;;12.32;5.30;;;230.80;2252.80;;;;;;5017874;28;20378;-84
2022/12/01 12:42:58;;;;;;;7.10;3.70;;;230.60;2252.80;;;;;;5014147;28;20051;-81
2022/12/01 12:45:45;;;;;;;20.63;10.55;;;230.70;2252.80;;;;;;4994227;28;20025;-80
2022/12/01 12:48:40;;;;;;;22.38;9.75;;;230.40;2252.80;;;;;;4991567;28;20042;-81
2022/12/01 12:51:19;;;;;;;18.27;7.85;;;205.70;2252.80;;;;;;5002277;28;20117;-83
2022/12/01 12:53:53;;;;;;;25.00;10.85;;;230.40;2252.80;;;;;;4997796;28;20034;-79
2022/12/01 12:56:21;;;;;;;18.95;8.35;;;205.70;2252.80;;;;;;4998400;28;20030;-82
2022/12/01 12:58:59;;;;;;;32.60;12.98;;;205.60;2252.80;;;;;;5011954;28;20065;-80